Time;durP1;ratioP1;P1;durP2;ratioP2;P2;SDS_P1;SDS_P2;PMS_P1;PMS_P2;Temp;Humidity;BMP_temperature;BMP_pressure;BME280_temperature;BME280_humidity;BME280_pressure;Samples;Min_cycle;Max_cycle;Signal;HPM_P1;HPM_P2
2023/01/08 00:01:09;;;;;;;6.53;3.90;;;;;;;5.37;66.29;100333.59;5036996;28;20057;-67
2023/01/08 00:03:36;;;;;;;7.15;4.63;;;;;;;5.56;66.02;100332.81;5035939;28;20049;-68
2023/01/08 00:06:05;;;;;;;7.95;4.43;;;;;;;5.31;66.75;100325.31;5037596;28;20034;-68
2023/01/08 00:08:33;;;;;;;7.78;4.28;;;;;;;5.41;66.21;100324.34;5037532;28;20050;-68
2023/01/08 00:11:00;;;;;;;6.63;4.00;;;;;;;5.12;67.16;100318.97;5037432;28;20034;-68
2023/01/08 00:13:26;;;;;;;8.07;4.28;;;;;;;4.84;67.78;100320.53;5037206;28;20056;-68
2023/01/08 00:15:54;;;;;;;9.68;4.32;;;;;;;5.30;66.87;100321.81;5036905;28;20121;-68
2023/01/08 00:18:21;;;;;;;6.20;3.75;;;;;;;5.35;66.31;100332.91;5036119;28;20037;-69
2023/01/08 00:20:47;;;;;;;7.93;4.25;;;;;;;5.56;65.98;100334.59;5036556;28;20062;-67
2023/01/08 00:23:18;;;;;;;11.07;4.68;;;;;;;5.45;65.75;100316.94;5037096;28;20035;-68
2023/01/08 00:25:45;;;;;;;8.20;4.38;;;;;;;5.29;66.12;100320.97;5037238;28;20102;-68
2023/01/08 00:28:13;;;;;;;9.52;4.45;;;;;;;5.36;66.59;100315.13;5037143;28;20042;-69
2023/01/08 00:30:40;;;;;;;7.95;4.85;;;;;;;5.22;66.46;100303.88;5036584;28;20033;-68
2023/01/08 00:33:08;;;;;;;7.10;4.13;;;;;;;5.34;66.47;100307.25;5037202;28;20033;-69
2023/01/08 00:35:37;;;;;;;8.77;4.47;;;;;;;5.29;66.18;100297.03;5037460;28;20105;-68
2023/01/08 00:38:04;;;;;;;9.25;4.55;;;;;;;5.26;66.53;100289.34;5036978;28;20038;-68
2023/01/08 00:40:32;;;;;;;6.43;4.20;;;;;;;5.26;66.50;100292.00;5036386;28;20050;-68
2023/01/08 00:42:59;;;;;;;7.28;4.45;;;;;;;5.04;67.25;100281.59;5036380;28;20046;-68
2023/01/08 00:45:25;;;;;;;6.38;4.28;;;;;;;5.24;66.56;100295.75;5037030;28;20038;-68
2023/01/08 00:47:52;;;;;;;7.70;3.92;;;;;;;5.24;66.68;100288.63;5033450;28;20480;-68
2023/01/08 00:50:18;;;;;;;7.15;4.65;;;;;;;4.96;66.98;100292.03;5036207;28;20085;-68
2023/01/08 00:52:45;;;;;;;6.32;4.60;;;;;;;5.19;66.54;100287.34;5036429;28;20064;-68
2023/01/08 00:55:11;;;;;;;5.97;4.25;;;;;;;4.97;66.98;100281.28;5035258;28;20048;-68
2023/01/08 00:57:38;;;;;;;9.50;4.78;;;;;;;5.17;67.03;100278.66;5036184;28;20049;-68
2023/01/08 01:00:08;;;;;;;10.02;5.07;;;;;;;4.99;67.25;100275.81;5035498;28;20117;-68
2023/01/08 01:02:36;;;;;;;7.10;4.28;;;;;;;5.14;66.97;100268.28;5036439;28;20084;-67
2023/01/08 01:05:03;;;;;;;5.60;4.18;;;;;;;4.84;66.87;100266.53;5020861;28;20049;-67
2023/01/08 01:07:32;;;;;;;11.57;5.00;;;;;;;4.81;67.54;100257.84;5016013;28;20069;-67
2023/01/08 01:09:58;;;;;;;6.65;4.43;;;;;;;5.11;66.76;100264.13;5015471;28;20056;-67
2023/01/08 01:12:25;;;;;;;6.57;4.68;;;;;;;4.72;67.90;100266.63;5015068;28;20030;-68
2023/01/08 01:14:51;;;;;;;8.23;4.68;;;;;;;4.94;67.46;100262.09;4999086;28;20043;-67
2023/01/08 01:17:18;;;;;;;8.80;4.78;;;;;;;4.97;67.07;100269.78;5015624;28;20056;-67
2023/01/08 01:19:44;;;;;;;10.45;5.57;;;;;;;4.99;66.97;100265.19;5016388;28;20038;-67
2023/01/08 01:22:11;;;;;;;7.95;4.90;;;;;;;4.55;68.22;100269.91;5015842;28;20066;-68
2023/01/08 01:24:37;;;;;;;8.93;4.82;;;;;;;4.61;67.86;100266.72;5012311;28;20049;-68
2023/01/08 01:27:04;;;;;;;11.55;4.95;;;;;;;4.89;67.81;100262.50;5014891;28;20031;-68
2023/01/08 01:29:30;;;;;;;9.27;5.30;;;;;;;4.84;67.29;100261.22;5015175;28;20090;-67
2023/01/08 01:31:57;;;;;;;8.32;5.20;;;;;;;4.51;67.88;100255.19;5014904;28;20077;-67
2023/01/08 01:34:24;;;;;;;8.00;4.95;;;;;;;4.54;68.55;100246.97;5014316;28;20030;-67
2023/01/08 01:36:50;;;;;;;8.60;5.25;;;;;;;4.88;67.42;100252.00;5015724;28;20045;-67
2023/01/08 01:39:18;;;;;;;8.88;5.85;;;;;;;4.81;67.24;100263.16;5014038;28;20053;-67
2023/01/08 01:41:46;;;;;;;10.98;5.38;;;;;;;4.81;67.45;100257.84;5015821;28;20046;-68
2023/01/08 01:44:51;;;;;;;10.65;5.93;;;;;;;4.75;67.79;100261.03;5014734;28;20073;-68
2023/01/08 01:47:29;;;;;;;7.60;5.30;;;;;;;4.64;68.05;100255.00;4933873;29;20107;-69
2023/01/08 01:49:59;;;;;;;10.05;6.07;;;;;;;4.52;68.06;100252.44;4936206;29;20068;-68
2023/01/08 01:52:29;;;;;;;8.18;5.93;;;;;;;4.53;68.39;100243.47;4936133;29;20064;-68
2023/01/08 01:54:57;;;;;;;8.25;5.95;;;;;;;4.12;69.60;100231.06;4936723;29;20038;-67
2023/01/08 01:57:25;;;;;;;9.45;6.18;;;;;;;4.08;70.02;100229.66;4936943;29;20095;-68
2023/01/08 01:59:53;;;;;;;8.80;5.50;;;;;;;4.56;68.28;100239.72;4922179;29;20039;-67
2023/01/08 02:02:20;;;;;;;11.07;6.15;;;;;;;4.38;68.74;100238.63;4935642;29;20060;-67
2023/01/08 02:04:49;;;;;;;8.48;6.03;;;;;;;4.64;68.00;100239.88;4949953;29;20099;-67
2023/01/08 02:07:48;;;;;;;9.55;5.97;;;;;;;4.30;68.96;100224.16;4957134;29;20067;-67
2023/01/08 02:10:28;;;;;;;12.45;6.78;;;;;;;4.41;68.55;100227.75;4954287;29;20028;-68
2023/01/08 02:13:02;;;;;;;10.20;6.55;;;;;;;4.48;68.33;100228.91;4954045;29;20035;-68
2023/01/08 02:16:07;;;;;;;10.18;6.90;;;;;;;4.38;68.39;100212.06;4954142;29;20036;-67
2023/01/08 02:18:45;;;;;;;10.00;6.75;;;;;;;4.29;68.91;100214.53;5000268;28;20056;-68
2023/01/08 02:21:35;;;;;;;9.90;6.53;;;;;;;4.34;68.61;100207.00;5035068;28;20058;-68
2023/01/08 02:24:26;;;;;;;10.20;7.20;;;;;;;3.97;69.67;100198.72;5034817;28;20093;-69
2023/01/08 02:26:56;;;;;;;12.53;7.00;;;;;;;3.77;70.54;100188.94;5034094;28;20226;-67
2023/01/08 02:29:24;;;;;;;12.02;7.07;;;;;;;4.24;69.77;100187.53;5034328;28;20037;-68
2023/01/08 02:31:51;;;;;;;11.38;7.13;;;;;;;4.25;69.19;100194.53;5035238;28;20105;-69
2023/01/08 02:34:18;;;;;;;12.88;7.60;;;;;;;4.13;69.12;100187.59;5033385;28;20038;-68
2023/01/08 02:36:47;;;;;;;12.75;7.25;;;;;;;3.92;70.05;100189.44;5026741;28;20105;-67
2023/01/08 02:39:22;;;;;;;12.77;6.75;;;;;;;4.23;69.46;100188.50;5034248;28;20109;-67
2023/01/08 02:42:16;;;;;;;14.95;7.35;;;;;;;4.24;69.53;100189.34;5033415;28;20049;-68
2023/01/08 02:45:06;;;;;;;11.23;7.18;;;;;;;3.98;69.75;100184.47;5017922;28;20021;-68
2023/01/08 02:47:38;;;;;;;11.15;7.15;;;;;;;4.02;70.00;100175.25;5033247;28;20056;-67
2023/01/08 02:50:31;;;;;;;12.00;7.18;;;;;;;3.92;70.05;100168.22;5033960;28;20105;-67
2023/01/08 02:53:21;;;;;;;13.68;7.47;;;;;;;3.93;70.19;100172.53;5024597;28;20030;-67
2023/01/08 02:55:52;;;;;;;16.05;7.30;;;;;;;4.00;70.05;100160.44;5034589;28;20068;-67
2023/01/08 02:58:22;;;;;;;14.52;8.13;;;;;;;3.66;70.97;100155.34;5033818;28;20042;-68
2023/01/08 03:00:49;;;;;;;10.90;7.10;;;;;;;3.70;70.75;100155.94;5034912;28;20044;-67
2023/01/08 03:03:26;;;;;;;10.93;7.53;;;;;;;3.58;70.95;100150.69;5034495;28;20034;-67
2023/01/08 03:06:05;;;;;;;17.15;7.63;;;;;;;3.73;70.84;100143.25;5004845;28;20107;-68
2023/01/08 03:08:41;;;;;;;10.63;7.32;;;;;;;3.50;71.19;100144.34;5013869;28;20069;-67
2023/01/08 03:11:17;;;;;;;12.00;7.63;;;;;;;3.69;71.20;100148.94;5014315;28;20058;-68
2023/01/08 03:13:59;;;;;;;14.90;7.18;;;;;;;3.97;69.87;100145.63;5014524;28;20094;-68
2023/01/08 03:16:33;;;;;;;13.90;7.80;;;;;;;3.90;70.08;100146.25;5013925;28;20066;-68
2023/01/08 03:19:31;;;;;;;12.52;7.93;;;;;;;3.83;69.98;100156.59;5014126;28;20030;-67
2023/01/08 03:22:01;;;;;;;10.65;7.35;;;;;;;3.89;70.08;100149.91;5012695;28;20059;-68
2023/01/08 03:24:32;;;;;;;10.70;7.68;;;;;;;3.80;70.63;100135.63;5014262;28;20118;-67
2023/01/08 03:27:02;;;;;;;11.18;7.65;;;;;;;3.77;70.45;100133.22;5013697;28;20053;-68
2023/01/08 03:29:30;;;;;;;11.90;7.70;;;;;;;3.80;70.41;100139.09;5013868;28;20042;-68
2023/01/08 03:32:03;;;;;;;11.27;8.13;;;;;;;3.82;70.68;100134.50;5014249;28;20062;-68
2023/01/08 03:34:33;;;;;;;12.75;7.70;;;;;;;3.65;70.69;100132.44;5014115;28;20105;-68
2023/01/08 03:37:06;;;;;;;16.42;8.35;;;;;;;3.56;71.19;100130.56;5013841;28;20098;-68
2023/01/08 03:39:39;;;;;;;14.02;7.70;;;;;;;3.77;70.25;100122.59;5014410;28;20046;-68
2023/01/08 03:42:08;;;;;;;11.35;7.35;;;;;;;3.85;70.24;100120.97;5014239;28;20116;-68
2023/01/08 03:44:35;;;;;;;12.10;8.10;;;;;;;3.98;69.61;100112.78;5013880;28;20030;-67
2023/01/08 03:47:03;;;;;;;15.57;8.70;;;;;;;3.62;70.45;100117.63;5014409;28;20106;-68
2023/01/08 03:49:29;;;;;;;12.35;8.18;;;;;;;3.71;70.26;100123.97;5013914;28;20090;-68
2023/01/08 03:51:56;;;;;;;11.00;7.70;;;;;;;3.61;70.36;100128.38;5013289;28;20042;-67
2023/01/08 03:54:28;;;;;;;13.02;8.27;;;;;;;3.66;70.74;100142.09;5018016;28;20085;-68
2023/01/08 03:56:54;;;;;;;10.95;8.27;;;;;;;3.67;70.60;100133.16;5017030;28;20042;-67
2023/01/08 03:59:21;;;;;;;13.15;8.85;;;;;;;3.61;70.71;100128.38;5017490;28;20061;-68
2023/01/08 04:01:47;;;;;;;13.82;8.98;;;;;;;3.65;70.73;100137.75;5017800;28;20057;-67
2023/01/08 04:04:15;;;;;;;16.55;9.32;;;;;;;3.70;70.64;100135.56;5025096;28;20046;-68
2023/01/08 04:06:41;;;;;;;13.05;8.18;;;;;;;3.67;70.13;100135.81;5037432;28;20051;-67
2023/01/08 04:09:09;;;;;;;11.20;7.80;;;;;;;3.73;70.34;100130.00;5036505;28;20053;-68
2023/01/08 04:11:35;;;;;;;12.52;8.52;;;;;;;3.62;70.72;100130.91;5036137;28;20129;-68
2023/01/08 04:14:02;;;;;;;17.52;8.93;;;;;;;3.73;70.57;100123.84;5037367;28;20050;-67
2023/01/08 04:16:28;;;;;;;16.08;8.57;;;;;;;3.53;71.35;100125.53;5036513;28;20085;-69
2023/01/08 04:18:55;;;;;;;13.88;9.02;;;;;;;3.54;70.80;100124.56;5037033;28;20053;-68
2023/01/08 04:21:21;;;;;;;15.40;8.73;;;;;;;3.59;71.07;100132.97;5020000;28;20067;-67
2023/01/08 04:23:48;;;;;;;16.35;8.05;;;;;;;3.68;70.68;100128.69;5036638;28;20042;-68
2023/01/08 04:26:14;;;;;;;14.63;8.90;;;;;;;3.58;71.08;100125.97;5036837;28;20085;-68
2023/01/08 04:28:41;;;;;;;15.25;8.75;;;;;;;3.62;70.54;100124.75;5036799;28;20097;-68
2023/01/08 04:31:08;;;;;;;14.25;9.15;;;;;;;3.11;71.55;100121.03;5036996;28;20122;-67
2023/01/08 04:33:35;;;;;;;15.52;8.75;;;;;;;3.11;72.58;100110.44;5036555;28;20038;-67
2023/01/08 04:36:03;;;;;;;16.05;9.30;;;;;;;3.36;72.08;100103.91;5036885;28;20093;-67
2023/01/08 04:38:29;;;;;;;13.68;8.90;;;;;;;3.17;72.15;100102.91;5033323;28;20045;-67
2023/01/08 04:40:57;;;;;;;14.10;8.85;;;;;;;3.11;72.46;100099.00;5037275;28;20042;-68
2023/01/08 04:43:25;;;;;;;13.88;8.93;;;;;;;3.19;72.22;100096.53;5035681;28;20041;-67
2023/01/08 04:45:51;;;;;;;12.45;8.63;;;;;;;3.41;71.49;100095.56;5035988;28;20073;-67
2023/01/08 04:48:18;;;;;;;17.05;8.93;;;;;;;3.19;72.17;100085.09;5036010;28;20050;-68
2023/01/08 04:50:44;;;;;;;13.40;8.45;;;;;;;3.28;72.01;100087.81;5036144;28;20038;-68
2023/01/08 04:53:11;;;;;;;14.65;8.82;;;;;;;3.36;71.67;100098.59;5031484;28;20041;-68
2023/01/08 04:55:37;;;;;;;13.10;8.32;;;;;;;3.78;69.94;100098.59;5036445;28;20064;-67
2023/01/08 04:58:05;;;;;;;14.02;8.55;;;;;;;3.76;70.25;100095.25;5036165;28;20056;-68
2023/01/08 05:00:31;;;;;;;11.75;8.20;;;;;;;3.55;70.50;100097.03;5035946;28;20045;-67
2023/01/08 05:02:58;;;;;;;12.43;8.50;;;;;;;3.57;70.48;100088.00;5034930;28;20086;-68
2023/01/08 05:05:24;;;;;;;12.02;8.27;;;;;;;3.65;70.48;100087.34;5018023;28;20117;-68
2023/01/08 05:07:51;;;;;;;12.93;8.82;;;;;;;3.44;71.01;100083.88;5016521;28;20048;-67
2023/01/08 05:10:18;;;;;;;11.82;8.05;;;;;;;3.61;70.48;100085.94;5016269;28;20056;-68
2023/01/08 05:12:44;;;;;;;16.48;8.45;;;;;;;3.64;70.20;100093.63;5016878;28;20066;-67
2023/01/08 05:15:11;;;;;;;13.75;8.35;;;;;;;3.76;69.70;100074.03;5016337;28;20048;-68
2023/01/08 05:17:37;;;;;;;14.23;9.07;;;;;;;3.66;70.68;100086.38;5015173;28;20104;-67
2023/01/08 05:20:04;;;;;;;11.93;7.90;;;;;;;3.60;70.35;100082.44;5015682;28;20053;-67
2023/01/08 05:22:30;;;;;;;13.10;8.60;;;;;;;3.56;70.49;100075.72;5015268;28;20125;-68
2023/01/08 05:24:57;;;;;;;11.70;7.85;;;;;;;3.61;70.78;100077.97;5016027;28;20040;-68
2023/01/08 05:27:23;;;;;;;14.32;8.20;;;;;;;3.69;69.88;100080.81;5015926;28;20097;-68
2023/01/08 05:29:50;;;;;;;14.82;8.07;;;;;;;3.75;69.95;100074.97;5015726;28;20031;-68
2023/01/08 05:32:17;;;;;;;12.43;7.57;;;;;;;3.67;70.23;100064.19;4996954;28;20046;-68
2023/01/08 05:34:44;;;;;;;12.45;8.40;;;;;;;3.71;70.21;100070.91;4990373;28;20056;-69
2023/01/08 05:37:11;;;;;;;18.17;7.75;;;;;;;3.64;69.93;100069.75;4992082;28;20042;-69
2023/01/08 05:39:38;;;;;;;12.98;7.72;;;;;;;3.64;69.76;100064.44;4992253;28;20400;-69
2023/01/08 05:42:04;;;;;;;12.80;8.05;;;;;;;3.89;69.33;100060.50;4992023;28;20101;-69
2023/01/08 05:44:31;;;;;;;10.60;7.63;;;;;;;3.96;69.11;100064.31;4991679;28;20053;-69
2023/01/08 05:46:57;;;;;;;10.13;6.85;;;;;;;3.95;69.07;100062.63;4992041;28;20077;-69
2023/01/08 05:49:24;;;;;;;13.38;7.40;;;;;;;3.84;69.38;100055.59;4991930;28;20046;-69
2023/01/08 05:51:50;;;;;;;10.25;6.97;;;;;;;3.96;68.68;100051.03;4991402;28;20056;-69
2023/01/08 05:54:17;;;;;;;17.77;7.72;;;;;;;3.85;68.89;100051.97;4992054;28;20450;-69
2023/01/08 05:56:43;;;;;;;11.00;7.05;;;;;;;3.94;68.91;100054.81;4991216;28;20503;-70
2023/01/08 05:59:11;;;;;;;13.65;7.18;;;;;;;4.09;68.32;100050.81;4991438;28;20407;-70
2023/01/08 06:01:37;;;;;;;11.18;7.10;;;;;;;3.96;68.57;100052.84;4991702;28;20054;-69
2023/01/08 06:04:04;;;;;;;9.02;6.82;;;;;;;3.98;68.69;100050.91;4996928;28;20050;-69
2023/01/08 06:06:31;;;;;;;15.45;7.90;;;;;;;3.93;68.82;100045.16;5011685;28;20050;-68
2023/01/08 06:08:57;;;;;;;10.05;6.88;;;;;;;4.01;68.54;100045.34;4994345;28;20483;-69
2023/01/08 06:11:24;;;;;;;10.05;7.35;;;;;;;4.04;68.71;100050.38;5010929;28;20129;-68
2023/01/08 06:13:50;;;;;;;14.90;6.55;;;;;;;4.10;67.83;100045.38;5011491;28;20129;-70
2023/01/08 06:16:17;;;;;;;10.25;7.05;;;;;;;3.94;68.73;100041.56;5009615;28;20099;-68
2023/01/08 06:18:43;;;;;;;9.80;6.70;;;;;;;4.07;68.53;100040.34;5010422;28;20050;-68
2023/01/08 06:21:12;;;;;;;8.48;6.07;;;;;;;4.14;67.87;100029.16;5010136;28;20513;-68
2023/01/08 06:23:39;;;;;;;10.52;6.45;;;;;;;3.94;68.29;100033.59;5011248;28;20487;-69
2023/01/08 06:26:06;;;;;;;10.27;6.80;;;;;;;4.13;68.01;100038.09;5009739;28;20053;-68
2023/01/08 06:28:32;;;;;;;15.48;6.75;;;;;;;4.32;67.22;100032.84;5009222;28;20073;-68
2023/01/08 06:31:00;;;;;;;10.80;7.00;;;;;;;4.35;67.51;100021.97;5011464;28;20048;-69
2023/01/08 06:33:28;;;;;;;9.45;6.88;;;;;;;4.27;67.61;100035.06;5009973;28;20044;-69
2023/01/08 06:36:00;;;;;;;9.68;6.13;;;;;;;4.34;67.30;100037.03;5009301;28;20042;-69
2023/01/08 06:38:29;;;;;;;8.52;6.30;;;;;;;4.28;67.40;100026.16;5009176;28;20037;-68
2023/01/08 06:40:55;;;;;;;8.55;5.95;;;;;;;4.34;67.40;100028.22;5010254;28;20483;-69
2023/01/08 06:43:21;;;;;;;9.23;6.32;;;;;;;4.32;67.49;100035.50;5010383;28;20422;-69
2023/01/08 06:45:57;;;;;;;8.57;6.32;;;;;;;4.59;66.93;100029.59;5010648;28;20128;-69
2023/01/08 06:48:24;;;;;;;10.45;6.18;;;;;;;4.55;66.79;100022.84;5009583;28;20072;-68
2023/01/08 06:50:51;;;;;;;10.18;6.03;;;;;;;4.61;66.52;100030.25;4992817;28;20057;-69
2023/01/08 06:53:18;;;;;;;7.70;5.28;;;;;;;4.68;66.82;100025.25;5009759;28;20050;-69
2023/01/08 06:55:44;;;;;;;10.32;5.82;;;;;;;4.60;66.64;100035.72;5008879;28;20050;-69
2023/01/08 06:58:11;;;;;;;11.73;6.80;;;;;;;4.72;66.54;100035.44;5009431;28;20052;-69
2023/01/08 07:00:38;;;;;;;17.70;9.90;;;;;;;4.60;66.66;100031.25;5008039;28;20137;-68
2023/01/08 07:03:05;;;;;;;17.27;9.65;;;;;;;4.72;66.72;100035.44;5008854;28;20044;-68
2023/01/08 07:05:32;;;;;;;10.43;6.18;;;;;;;4.75;66.39;100037.00;5009805;28;20392;-68
2023/01/08 07:07:58;;;;;;;9.50;5.70;;;;;;;4.64;66.72;100031.81;5009392;28;20099;-69
2023/01/08 07:10:26;;;;;;;7.63;5.53;;;;;;;4.74;66.37;100020.22;5010423;28;20483;-69
2023/01/08 07:12:52;;;;;;;13.93;5.95;;;;;;;4.77;66.60;100021.75;5009418;28;20057;-69
2023/01/08 07:15:19;;;;;;;13.23;6.38;;;;;;;4.82;66.36;100025.66;5008881;28;20049;-69
2023/01/08 07:17:45;;;;;;;7.63;5.55;;;;;;;4.78;66.46;100028.75;5008117;28;20065;-69
2023/01/08 07:20:12;;;;;;;11.20;7.72;;;;;;;4.74;66.64;100028.19;5008998;28;20066;-69
2023/01/08 07:22:39;;;;;;;12.35;7.03;;;;;;;4.85;66.28;100027.19;5008086;28;20080;-70
2023/01/08 07:25:06;;;;;;;7.80;5.03;;;;;;;4.75;66.60;100029.00;5009713;28;20410;-69
2023/01/08 07:27:32;;;;;;;8.77;5.65;;;;;;;4.70;67.09;100042.72;5012032;28;20149;-67
2023/01/08 07:29:59;;;;;;;7.68;5.53;;;;;;;4.85;67.19;100039.66;5014547;28;20053;-69
2023/01/08 07:32:25;;;;;;;8.35;5.30;;;;;;;4.85;67.41;100040.50;5011975;28;20129;-69
2023/01/08 07:34:53;;;;;;;8.02;5.47;;;;;;;4.69;68.09;100054.31;5013985;28;20054;-70
2023/01/08 07:37:20;;;;;;;6.30;4.63;;;;;;;4.65;68.75;100050.25;5012789;28;20052;-69
2023/01/08 07:39:46;;;;;;;8.13;5.30;;;;;;;4.66;69.55;100046.66;5012945;28;20136;-70
2023/01/08 07:42:13;;;;;;;10.10;5.30;;;;;;;4.75;69.20;100045.78;5013113;28;20050;-69
2023/01/08 07:44:39;;;;;;;8.27;5.93;;;;;;;4.61;70.03;100054.19;5013885;28;20050;-68
2023/01/08 07:47:06;;;;;;;9.75;5.25;;;;;;;4.64;70.41;100045.94;5013281;28;20513;-69
2023/01/08 07:49:32;;;;;;;7.25;5.68;;;;;;;4.63;70.88;100046.91;5014168;28;20046;-70
2023/01/08 07:51:59;;;;;;;10.73;5.95;;;;;;;4.66;71.02;100041.34;5012897;28;20044;-69
2023/01/08 07:54:25;;;;;;;8.48;5.82;;;;;;;4.57;71.48;100042.16;5011749;28;20049;-69
2023/01/08 07:56:55;;;;;;;8.98;6.30;;;;;;;4.55;71.80;100039.63;5013927;28;20050;-69
2023/01/08 07:59:22;;;;;;;9.63;6.15;;;;;;;4.80;71.35;100034.78;4995585;28;20041;-69
2023/01/08 08:01:48;;;;;;;7.30;5.28;;;;;;;4.56;71.61;100041.31;5013407;28;20048;-69
2023/01/08 08:04:15;;;;;;;9.45;5.97;;;;;;;4.69;72.01;100030.41;5012617;28;20449;-69
2023/01/08 08:06:41;;;;;;;9.65;6.50;;;;;;;4.57;71.78;100031.53;5013281;28;20056;-69
2023/01/08 08:09:08;;;;;;;9.63;6.65;;;;;;;4.64;72.45;100024.69;5013216;28;20069;-70
2023/01/08 08:11:34;;;;;;;11.70;6.70;;;;;;;4.67;72.10;100029.72;5013199;28;20056;-70
2023/01/08 08:14:01;;;;;;;9.82;5.60;;;;;;;4.66;72.64;100029.84;5013347;28;20042;-70
2023/01/08 08:16:27;;;;;;;10.45;5.93;;;;;;;4.65;72.70;100039.63;5012743;28;20045;-70
2023/01/08 08:18:56;;;;;;;9.80;6.75;;;;;;;4.58;72.87;100042.00;5012639;28;20111;-70
2023/01/08 08:21:23;;;;;;;7.28;5.88;;;;;;;4.82;72.71;100030.97;5012813;28;20502;-70
2023/01/08 08:23:49;;;;;;;8.70;6.55;;;;;;;4.61;73.53;100035.56;5013034;28;20414;-69
2023/01/08 08:26:16;;;;;;;9.55;6.03;;;;;;;4.65;73.13;100029.00;5012869;28;20045;-70
2023/01/08 08:28:42;;;;;;;8.15;6.05;;;;;;;4.65;73.21;100028.16;5011859;28;20132;-71
2023/01/08 08:31:09;;;;;;;8.10;5.88;;;;;;;4.73;72.79;100023.84;5013298;28;20056;-70
2023/01/08 08:33:35;;;;;;;8.73;6.30;;;;;;;4.72;73.01;100008.88;5012674;28;20049;-69
2023/01/08 08:36:02;;;;;;;7.88;6.25;;;;;;;4.86;72.98;100014.75;5013180;28;20411;-70
2023/01/08 08:38:28;;;;;;;8.55;6.00;;;;;;;4.92;72.62;100001.72;5012455;28;20124;-69
2023/01/08 08:40:55;;;;;;;9.40;5.85;;;;;;;4.82;72.98;100003.56;5012531;28;20140;-69
2023/01/08 08:43:21;;;;;;;9.80;6.50;;;;;;;4.61;73.28;100006.34;5012232;28;20052;-70
2023/01/08 08:45:48;;;;;;;14.13;6.60;;;;;;;4.95;72.68;100003.28;5010836;28;20056;-69
2023/01/08 08:48:15;;;;;;;9.30;6.07;;;;;;;4.91;72.81;100007.19;5012508;28;20066;-70
2023/01/08 08:50:42;;;;;;;8.80;6.10;;;;;;;4.80;73.16;100003.72;5012372;28;20056;-69
2023/01/08 08:53:09;;;;;;;11.57;7.07;;;;;;;4.81;73.30;100002.72;5011837;28;20124;-69
2023/01/08 08:55:35;;;;;;;14.38;6.85;;;;;;;4.85;73.10;99997.97;5012066;28;20498;-68
2023/01/08 08:58:12;;;;;;;11.23;6.32;;;;;;;5.01;72.84;100003.56;5012904;28;20129;-71
2023/01/08 09:00:42;;;;;;;10.77;6.03;;;;;;;5.14;72.00;99995.25;5004635;28;20481;-69
2023/01/08 09:03:13;;;;;;;9.23;6.07;;;;;;;4.94;71.73;99997.13;5011336;28;20085;-69
2023/01/08 09:05:41;;;;;;;8.45;5.57;;;;;;;5.02;71.26;99983.94;4991798;28;20073;-69
2023/01/08 09:08:08;;;;;;;9.18;6.30;;;;;;;5.22;71.58;99983.94;4992107;28;20050;-68
2023/01/08 09:10:36;;;;;;;8.68;5.68;;;;;;;5.14;71.40;99970.50;4992972;28;20141;-70
2023/01/08 09:13:03;;;;;;;8.15;5.75;;;;;;;5.29;70.82;99959.28;4991290;28;20052;-70
2023/01/08 09:15:30;;;;;;;9.05;6.18;;;;;;;5.31;71.09;99952.97;4991035;28;20042;-70
2023/01/08 09:17:56;;;;;;;8.55;5.95;;;;;;;5.53;70.06;99957.94;4990703;28;20056;-70
2023/01/08 09:20:25;;;;;;;6.93;5.32;;;;;;;5.38;70.41;99967.34;4991401;28;20046;-70
2023/01/08 09:22:51;;;;;;;9.38;5.78;;;;;;;5.42;70.58;99963.41;4991353;28;20050;-70
2023/01/08 09:25:18;;;;;;;7.90;5.57;;;;;;;5.33;70.79;99959.81;4991595;28;20050;-70
2023/01/08 09:27:44;;;;;;;8.43;5.57;;;;;;;5.51;70.51;99978.50;4991997;28;20058;-70
2023/01/08 09:30:11;;;;;;;12.48;5.90;;;;;;;5.32;70.66;99983.88;4992390;28;20384;-70
2023/01/08 09:32:38;;;;;;;9.60;5.35;;;;;;;5.27;71.17;99992.31;4992282;28;20058;-69
2023/01/08 09:35:05;;;;;;;9.73;4.88;;;;;;;5.21;71.53;99992.88;4991868;28;20042;-70
2023/01/08 09:37:31;;;;;;;11.07;5.40;;;;;;;5.19;71.57;99982.38;4991497;28;20050;-70
2023/01/08 09:39:58;;;;;;;10.77;5.43;;;;;;;5.21;71.82;99988.41;5010090;28;20042;-66
2023/01/08 09:42:29;;;;;;;7.82;5.43;;;;;;;5.23;72.29;99996.22;5013641;28;20050;-65
2023/01/08 09:44:59;;;;;;;6.68;5.30;;;;;;;5.16;72.20;100003.94;5013669;28;20059;-67
2023/01/08 09:47:35;;;;;;;8.40;5.22;;;;;;;5.23;72.42;100007.72;5013028;28;20076;-64
2023/01/08 09:50:05;;;;;;;6.40;4.85;;;;;;;5.21;72.04;100017.66;5012373;28;20102;-67
2023/01/08 09:52:32;;;;;;;8.93;5.32;;;;;;;5.20;72.45;100021.28;5011210;28;20066;-66
2023/01/08 09:54:59;;;;;;;8.73;5.55;;;;;;;5.04;72.68;100018.38;5001445;28;20054;-64
2023/01/08 09:57:27;;;;;;;9.60;5.20;;;;;;;5.05;72.92;100020.06;5005753;28;20103;-65
2023/01/08 09:59:54;;;;;;;11.05;4.90;;;;;;;5.25;72.43;100010.25;5005047;28;20046;-63
2023/01/08 10:02:24;;;;;;;8.18;5.10;;;;;;;5.05;73.62;100002.28;4994269;28;20467;-65
2023/01/08 10:04:55;;;;;;;8.80;4.80;;;;;;;5.27;73.15;99998.44;5007888;28;20125;-65
2023/01/08 10:07:24;;;;;;;6.78;4.32;;;;;;;5.20;73.74;99992.03;5014052;28;20056;-65
2023/01/08 10:09:52;;;;;;;10.40;6.10;;;;;;;5.11;73.98;99998.22;5014090;28;20053;-64
2023/01/08 10:12:37;;;;;;;7.25;5.47;;;;;;;4.99;74.59;99988.72;5015560;28;20458;-64
2023/01/08 10:15:07;;;;;;;7.70;5.30;;;;;;;5.03;74.74;99990.09;5014740;28;20391;-64
2023/01/08 10:17:38;;;;;;;10.73;5.60;;;;;;;4.91;75.48;99977.97;5019883;28;20049;-66
2023/01/08 10:20:15;;;;;;;8.50;5.82;;;;;;;4.96;75.70;99975.72;5018097;28;20034;-65
2023/01/08 10:22:42;;;;;;;7.82;5.28;;;;;;;5.19;75.68;99968.25;5021627;28;20129;-65
2023/01/08 10:25:15;;;;;;;12.50;6.75;;;;;;;4.99;76.67;99965.63;5020284;28;20072;-65
2023/01/08 10:27:58;;;;;;;9.15;6.40;;;;;;;5.24;76.04;99972.16;5025030;28;20050;-65
2023/01/08 10:30:35;;;;;;;10.45;7.10;;;;;;;4.93;77.09;99965.34;5027736;28;20041;-65
2023/01/08 10:33:05;;;;;;;11.77;7.50;;;;;;;4.94;77.18;99964.41;5027656;28;20470;-66
2023/01/08 10:35:40;;;;;;;9.23;6.90;;;;;;;4.94;77.51;99959.09;5029109;28;20104;-66
2023/01/08 10:38:23;;;;;;;10.35;7.28;;;;;;;4.82;77.54;99961.03;5030292;28;20106;-65
2023/01/08 10:40:50;;;;;;;12.05;7.63;;;;;;;5.00;77.58;99958.50;5026594;28;20109;-64
2023/01/08 10:43:19;;;;;;;10.13;7.22;;;;;;;4.91;77.43;99943.41;5031347;28;20065;-66
2023/01/08 10:46:01;;;;;;;11.07;7.50;;;;;;;4.89;77.84;99950.69;5033017;28;20113;-66
2023/01/08 10:48:35;;;;;;;9.73;7.78;;;;;;;4.77;78.32;99958.81;5031859;28;20106;-65
2023/01/08 10:51:12;;;;;;;15.43;8.43;;;;;;;4.90;78.15;99958.53;5032260;28;20093;-64
2023/01/08 10:53:40;;;;;;;11.27;7.85;;;;;;;4.94;78.26;99953.75;5029323;28;20073;-65
2023/01/08 10:56:18;;;;;;;14.73;8.32;;;;;;;4.95;78.29;99947.47;5031334;28;20062;-66
2023/01/08 10:58:45;;;;;;;11.20;7.55;;;;;;;4.80;78.59;99958.53;5030567;28;20073;-66
2023/01/08 11:01:27;;;;;;;10.45;7.70;;;;;;;4.79;78.82;99951.53;5031509;28;20060;-67
2023/01/08 11:04:03;;;;;;;11.02;7.72;;;;;;;4.82;78.35;99947.75;5007584;28;20050;-66
2023/01/08 11:06:33;;;;;;;15.50;8.48;;;;;;;4.80;78.28;99947.06;5010668;28;20046;-66
2023/01/08 11:09:02;;;;;;;11.10;8.40;;;;;;;4.97;78.39;99929.53;5009442;28;20436;-66
2023/01/08 11:11:36;;;;;;;17.50;8.60;;;;;;;5.02;78.09;99935.28;5009798;28;20050;-66
2023/01/08 11:14:13;;;;;;;12.80;8.07;;;;;;;4.99;78.33;99933.72;5010225;28;20062;-66
2023/01/08 11:16:41;;;;;;;24.98;13.35;;;;;;;5.22;77.47;99925.44;5008315;28;20055;-69
2023/01/08 11:19:21;;;;;;;20.00;12.05;;;;;;;5.25;77.48;99925.97;5011112;28;20114;-65
2023/01/08 11:22:15;;;;;;;13.73;8.48;;;;;;;5.22;77.16;99923.59;5009684;28;20035;-66
2023/01/08 11:24:42;;;;;;;13.57;8.38;;;;;;;5.22;76.66;99915.63;5008149;28;20100;-65
2023/01/08 11:27:33;;;;;;;11.32;7.40;;;;;;;5.27;76.67;99908.03;5008460;28;20046;-67
2023/01/08 11:30:13;;;;;;;6.50;5.43;;;;;;;5.31;76.66;99899.75;5008067;28;20098;-67
2023/01/08 11:32:39;;;;;;;13.10;7.47;;;;;;;5.29;76.65;99889.28;5009786;28;20050;-69
2023/01/08 11:35:19;;;;;;;13.63;7.90;;;;;;;5.29;76.30;99891.94;5010510;28;20057;-66
2023/01/08 11:37:52;;;;;;;11.98;7.47;;;;;;;5.32;76.56;99890.78;5010715;28;20042;-66
2023/01/08 11:40:37;;;;;;;11.20;7.50;;;;;;;5.32;76.52;99893.44;4992499;28;20057;-67